地図

経路データ

SID SEASON NUMBER BASIN SUBBASIN NAME ISO_TIME NATURE LAT LON WMO_WIND WMO_PRES WMO_AGENCY TRACK_TYPE DIST2LAND LANDFALL IFLAG USA_AGENCY USA_ATCF_ID USA_LAT USA_LON USA_RECORD USA_STATUS USA_WIND USA_PRES USA_SSHS USA_R34_NE USA_R34_SE USA_R34_SW USA_R34_NW USA_R50_NE USA_R50_SE USA_R50_SW USA_R50_NW USA_R64_NE USA_R64_SE USA_R64_SW USA_R64_NW USA_POCI USA_ROCI USA_RMW USA_EYE TOKYO_LAT TOKYO_LON TOKYO_GRADE TOKYO_WIND TOKYO_PRES TOKYO_R50_DIR TOKYO_R50_LONG TOKYO_R50_SHORT TOKYO_R30_DIR TOKYO_R30_LONG TOKYO_R30_SHORT TOKYO_LAND CMA_LAT CMA_LON CMA_CAT CMA_WIND CMA_PRES HKO_LAT HKO_LON HKO_CAT HKO_WIND HKO_PRES NEWDELHI_LAT NEWDELHI_LON NEWDELHI_GRADE NEWDELHI_WIND NEWDELHI_PRES NEWDELHI_CI NEWDELHI_DP NEWDELHI_POCI REUNION_LAT REUNION_LON REUNION_TYPE REUNION_WIND REUNION_PRES REUNION_TNUM REUNION_CI REUNION_RMW REUNION_R34_NE REUNION_R34_SE REUNION_R34_SW REUNION_R34_NW REUNION_R50_NE REUNION_R50_SE REUNION_R50_SW REUNION_R50_NW REUNION_R64_NE REUNION_R64_SE REUNION_R64_SW REUNION_R64_NW BOM_LAT BOM_LON BOM_TYPE BOM_WIND BOM_PRES BOM_TNUM BOM_CI BOM_RMW BOM_R34_NE BOM_R34_SE BOM_R34_SW BOM_R34_NW BOM_R50_NE BOM_R50_SE BOM_R50_SW BOM_R50_NW BOM_R64_NE BOM_R64_SE BOM_R64_SW BOM_R64_NW BOM_ROCI BOM_POCI BOM_EYE BOM_POS_METHOD BOM_PRES_METHOD NADI_LAT NADI_LON NADI_CAT NADI_WIND NADI_PRES WELLINGTON_LAT WELLINGTON_LON WELLINGTON_WIND WELLINGTON_PRES DS824_LAT DS824_LON DS824_STAGE DS824_WIND DS824_PRES TD9636_LAT TD9636_LON TD9636_STAGE TD9636_WIND TD9636_PRES TD9635_LAT TD9635_LON TD9635_WIND TD9635_PRES TD9635_ROCI NEUMANN_LAT NEUMANN_LON NEUMANN_CLASS NEUMANN_WIND NEUMANN_PRES MLC_LAT MLC_LON MLC_CLASS MLC_WIND MLC_PRES USA_GUST BOM_GUST BOM_GUST_PER REUNION_GUST REUNION_GUST_PER USA_SEAHGT USA_SEARAD_NE USA_SEARAD_SE USA_SEARAD_SW USA_SEARAD_NW STORM_SPEED STORM_DIR
1941013S14054 1941 6 SI MM NOT_NAMED 1941-01-13 06:00:00 NR -14.2000 54.0000 reunion main 392 379 _____O________ -1 -14.2000 54.0000 99 9.90000 3 238
1941013S14054 1941 6 SI MM NOT_NAMED 1941-01-13 09:00:00 NR -14.2785 53.8740 main 379 379 _____P________ -1 -14.2785 53.8740 99 2 138
1941013S14054 1941 6 SI MM NOT_NAMED 1941-01-13 12:00:00 NR -14.3184 54.1102 main 400 376 _____P____O___ -1 -14.3579 53.7469 99 -14.2000 55.2000 7 2 158
1941013S14054 1941 6 SI MM NOT_NAMED 1941-01-13 15:00:00 NR -14.4250 53.9308 main 376 352 _____P____P___ -1 -14.4389 53.6175 99 -14.3972 54.5575 7 5 241
1941013S14054 1941 6 SI MM NOT_NAMED 1941-01-13 18:00:00 NR -14.5491 53.6848 main 352 316 _____P____P___ -1 -14.5225 53.4849 99 -14.5847 53.9513 7 6 244
1941013S14054 1941 6 SI MM NOT_NAMED 1941-01-13 21:00:00 NR -14.6821 53.3837 main 316 282 _____P____P___ -1 -14.6095 53.3479 99 -14.7547 53.4195 7 6 245
1941013S14054 1941 6 SI MM NOT_NAMED 1941-01-14 00:00:00 TS -14.8115 53.0913 main 282 260 _____P___OO___ -1 -14.7009 53.2055 99 -14.9000 53.0000 TC 25 -14.9000 53.0000 1 6 244
1941013S14054 1941 6 SI MM NOT_NAMED 1941-01-14 03:00:00 TS -14.9256 52.8668 main 260 237 _____P___PP___ -1 -14.7974 53.0565 99 -15.0001 52.7875 TC 25 -15.0167 52.7167 1 5 241
1941013S14054 1941 6 SI MM NOT_NAMED 1941-01-14 06:00:00 TS -15.0324 52.6861 reunion main 237 215 _____O___OP___ -1 -14.9000 52.9000 99 9.90000 -15.1000 52.6000 TC 25 -15.1140 52.5369 1 4 237
1941013S14054 1941 6 SI MM NOT_NAMED 1941-01-14 09:00:00 TS -15.1378 52.5330 main 215 203 _____P___PP___ -1 -15.0090 52.7355 99 -15.2000 52.4500 TC 25 -15.2044 52.4137 1 4 234
1941013S14054 1941 6 SI MM NOT_NAMED 1941-01-14 12:00:00 TS -15.2410 52.3884 main 203 182 _____P___OO___ -1 -15.1230 52.5653 99 -15.3000 52.3000 TC 25 -15.3000 52.3000 1 4 236
1941013S14054 1941 6 SI MM NOT_NAMED 1941-01-14 15:00:00 TS -15.3528 52.2018 main 182 161 _____P___PP___ -1 -15.2399 52.3925 99 -15.3925 52.1000 TC 25 -15.4260 52.1129 1 4 237
1941013S14054 1941 6 SI MM NOT_NAMED 1941-01-14 18:00:00 TS -15.4718 52.0160 main 161 150 _____P___OP___ -1 -15.3578 52.2204 99 -15.5000 51.9000 TC 25 -15.5575 51.9276 1 4 234
1941013S14054 1941 6 SI MM NOT_NAMED 1941-01-14 21:00:00 TS -15.6058 51.8468 main 141 132 _____P___PP___ -1 -15.4747 52.0519 99 -15.6575 51.7350 TC 25 -15.6853 51.7535 1 4 230
1941013S14054 1941 6 SI MM NOT_NAMED 1941-01-15 00:00:00 TS -15.7295 51.6968 main 132 126 _____P___OO___ -1 -15.5886 51.8903 99 -15.8000 51.6000 TC 25 -15.8000 51.6000 1 3 232
1941013S14054 1941 6 SI MM NOT_NAMED 1941-01-15 03:00:00 TS -15.8148 51.5684 main 126 116 _____P___PP___ -1 -15.6977 51.7386 99 -15.8575 51.4925 TC 25 -15.8893 51.4743 1 3 235
1941013S14054 1941 6 SI MM NOT_NAMED 1941-01-15 06:00:00 TS -15.8883 51.4566 reunion main 120 111 _____O___OP___ -1 -15.8000 51.6000 99 9.90000 -15.9000 51.4000 TC 25 -15.9649 51.3699 1 3 233
1941013S14054 1941 6 SI MM NOT_NAMED 1941-01-15 09:00:00 TS -15.9733 51.3499 main 106 106 _____P___PP___ -1 -15.8869 51.4692 99 -16.0000 51.3000 TC 25 -16.0331 51.2805 1 3 230
1941013S14054 1941 6 SI MM NOT_NAMED 1941-01-15 12:00:00 TS -16.0558 51.2497 main 101 101 _____P___OO___ -1 -15.9673 51.3492 99 -16.1000 51.2000 TC 25 -16.1000 51.2000 1 2 233
1941013S14054 1941 6 SI MM NOT_NAMED 1941-01-15 15:00:00 TS -16.1212 51.1476 main 91 91 _____P___PP___ -1 -16.0428 51.2408 99 -16.1500 51.0925 TC 25 -16.1709 51.1097 1 2 235
1941013S14054 1941 6 SI MM NOT_NAMED 1941-01-15 18:00:00 TS -16.1858 51.0574 main 96 87 _____P___OP___ -1 -16.1148 51.1448 99 -16.2000 51.0000 TC 25 -16.2425 51.0275 1 2 227
1941013S14054 1941 6 SI MM NOT_NAMED 1941-01-15 21:00:00 TS -16.2651 50.9870 main 91 81 _____P___PP___ -1 -16.1850 51.0620 99 -16.2925 50.9425 TC 30 -16.3178 50.9566 1 2 216
1941013S14054 1941 6 SI MM NOT_NAMED 1941-01-16 00:00:00 TS -16.3516 50.9310 main 87 87 _____P___OO___ -1 -16.2549 50.9930 99 -16.4000 50.9000 TC 35 -16.4000 50.9000 2 2 210
1941013S14054 1941 6 SI MM NOT_NAMED 1941-01-16 03:00:00 TS -16.4396 50.8752 main 87 85 _____P___PP___ -1 -16.3260 50.9388 99 -16.5000 50.8425 TC 35 -16.4928 50.8444 2 2 207
1941013S14054 1941 6 SI MM NOT_NAMED 1941-01-16 06:00:00 TS -16.5308 50.8350 reunion main 85 85 _____O___OP___ -1 -16.4000 50.9000 99 9.90000 -16.6000 50.8000 TC 35 -16.5925 50.8051 2 2 201
1941013S14054 1941 6 SI MM NOT_NAMED 1941-01-16 09:00:00 TS -16.6243 50.8041 main 92 92 _____P___PP___ -1 -16.4769 50.8392 99 -16.7000 50.7850 TC 35 -16.6959 50.7882 2 2 189
1941013S14054 1941 6 SI MM NOT_NAMED 1941-01-16 12:00:00 TS -16.7184 50.7969 main 101 101 _____P___OO___ -1 -16.5551 50.7908 99 -16.8000 50.8000 TC 35 -16.8000 50.8000 2 2 0
1941013S14054 1941 6 SI MM NOT_NAMED 1941-01-16 15:00:00 TS -16.8105 50.8053 main 106 106 _____P___PP___ -1 -16.6356 50.7591 99 -16.9000 50.8350 TC 35 -16.8958 50.8219 2 2 168
1941013S14054 1941 6 SI MM NOT_NAMED 1941-01-16 18:00:00 TS -16.9038 50.8412 main 107 107 _____P___OP___ -1 -16.7191 50.7484 99 -17.0000 50.9000 TC 35 -16.9923 50.8751 2 2 155
1941013S14054 1941 6 SI MM NOT_NAMED 1941-01-16 21:00:00 TS -16.9972 50.9020 main 119 119 _____P___PP___ -1 -16.8065 50.7628 99 -17.0925 50.9775 TC 35 -17.0927 50.9657 2 3 142
1941013S14054 1941 6 SI MM NOT_NAMED 1941-01-17 00:00:00 TS -17.0995 51.0022 main 132 132 _____P___OO___ -1 -16.8986 50.8067 99 -17.2000 51.1000 TC 35 -17.2000 51.1000 2 3 134
1941013S14054 1941 6 SI MM NOT_NAMED 1941-01-17 03:00:00 TS -17.2227 51.1465 main 145 145 _____P___PP___ -1 -16.9961 50.8843 99 -17.3500 51.2775 TC 35 -17.3219 51.2777 2 4 128
1941013S14054 1941 6 SI MM NOT_NAMED 1941-01-17 06:00:00 TS -17.3500 51.3325 reunion main 173 173 _____O___OP___ -1 -17.1000 51.0000 99 9.90000 -17.5000 51.5000 TC 35 -17.4501 51.4974 2 5 123
1941013S14054 1941 6 SI MM NOT_NAMED 1941-01-17 09:00:00 TS -17.4676 51.5491 main 196 196 _____P___PP___ -1 -17.2171 51.1613 99 -17.6075 51.7425 TC 35 -17.5782 51.7434 2 5 118
1941013S14054 1941 6 SI MM NOT_NAMED 1941-01-17 12:00:00 TS -17.5804 51.7876 main 230 230 _____P___OO___ -1 -17.3413 51.3627 99 -17.7000 52.0000 TC 35 -17.7000 52.0000 2 5 116
1941013S14054 1941 6 SI MM NOT_NAMED 1941-01-17 15:00:00 TS -17.6923 52.0272 main 254 254 _____P___PP___ -1 -17.4700 51.5969 99 -17.8000 52.2500 TC 35 -17.8071 52.2348 2 5 115
1941013S14054 1941 6 SI MM NOT_NAMED 1941-01-17 18:00:00 TS -17.8027 52.2781 main 288 288 _____P___OP___ -1 -17.6009 51.8565 99 -17.9000 52.5000 TC 35 -17.9073 52.4777 2 5 114
1941013S14054 1941 6 SI MM NOT_NAMED 1941-01-17 21:00:00 TS -17.9118 52.5361 main 311 311 _____P___PP___ -1 -17.7317 52.1341 99 -17.9999 52.7425 TC 35 -18.0039 52.7317 2 5 113
1941013S14054 1941 6 SI MM NOT_NAMED 1941-01-18 00:00:00 TS -18.0200 52.8074 main 345 345 _____P___OO___ -1 -17.8600 52.4222 99 -18.1000 53.0000 TC 35 -18.1000 53.0000 2 6 112
1941013S14054 1941 6 SI MM NOT_NAMED 1941-01-18 03:00:00 TS -18.1279 53.1012 main 379 371 _____P___PP___ -1 -17.9835 52.7133 99 -18.2000 53.2925 TC 35 -18.2001 53.2978 2 6 111
1941013S14054 1941 6 SI MM NOT_NAMED 1941-01-18 06:00:00 TS -18.2334 53.4025 reunion main 371 345 _____O___OP___ -1 -18.1000 53.0000 99 9.90000 -18.3000 53.6000 TC 35 -18.3001 53.6075 2 6 110
1941013S14054 1941 6 SI MM NOT_NAMED 1941-01-18 09:00:00 TS -18.3351 53.6954 main 345 321 _____P___PP___ -1 -18.2052 53.2578 99 -18.4000 53.9150 TC 35 -18.4001 53.9134 2 6 110
1941013S14054 1941 6 SI MM NOT_NAMED 1941-01-18 12:00:00 TS -18.4349 53.9722 main 321 302 _____P___OO___ -1 -18.3046 53.5165 99 -18.5000 54.2000 TC 35 -18.5000 54.2000 2 5 112
1941013S14054 1941 6 SI MM NOT_NAMED 1941-01-18 15:00:00 TS -18.5354 54.2096 main 302 284 _____P___PP___ -1 -18.3985 53.7745 99 -18.5999 54.4076 TC 30 -18.6079 54.4466 2 5 114
1941013S14054 1941 6 SI MM NOT_NAMED 1941-01-18 18:00:00 TS -18.6340 54.4343 main 284 264 _____P___OP___ -1 -18.4874 54.0303 99 -18.7000 54.6000 TC 25 -18.7147 54.6726 2 5 114
1941013S14054 1941 6 SI MM NOT_NAMED 1941-01-18 21:00:00 TS -18.7311 54.6732 main 264 249 _____P___PP___ -1 -18.5716 54.2823 99 -18.8075 54.8500 TC 25 -18.8142 54.8872 2 5 112
1941013S14054 1941 6 SI MM NOT_NAMED 1941-01-19 00:00:00 TS -18.8172 54.9096 main 249 235 _____P___OO___ -1 -18.6515 54.5289 99 -18.9000 55.1000 TC 25 -18.9000 55.1000 1 5 109
1941013S14054 1941 6 SI MM NOT_NAMED 1941-01-19 03:00:00 TS -18.8831 55.1326 main 235 234 _____P___PP___ -1 -18.7275 54.7687 99 -18.9574 55.3001 TC 25 -18.9643 55.3292 1 4 106
1941013S14054 1941 6 SI MM NOT_NAMED 1941-01-19 06:00:00 TS -18.9383 55.3526 reunion main 234 223 _____O___OP___ -1 -18.8000 55.0000 99 9.90000 -19.0000 55.5000 TC 25 -19.0149 55.5577 1 4 104
1941013S14054 1941 6 SI MM NOT_NAMED 1941-01-19 09:00:00 TS -18.9939 55.5862 main 223 216 _____P___PP___ -1 -18.8735 55.2264 99 -19.0500 55.7500 TC 25 -19.0581 55.7823 1 5 104
1941013S14054 1941 6 SI MM NOT_NAMED 1941-01-19 12:00:00 TS -19.0477 55.8151 main 216 192 _____P___OO___ -1 -18.9431 55.4453 99 -19.1000 56.0000 TC 25 -19.1000 56.0000 1 4 105
1941013S14054 1941 6 SI MM NOT_NAMED 1941-01-19 15:00:00 TS -19.1030 56.0265 main 192 169 _____P___PP___ -1 -19.0091 55.6566 99 -19.1500 56.2075 TC 25 -19.1500 56.2153 1 4 106
1941013S14054 1941 6 SI MM NOT_NAMED 1941-01-19 18:00:00 TS -19.1573 56.2276 main 169 152 _____P___OP___ -1 -19.0721 55.8603 99 -19.2000 56.4000 TC 25 -19.1999 56.4225 1 4 106
1941013S14054 1941 6 SI MM NOT_NAMED 1941-01-19 21:00:00 TS -19.2107 56.4275 main 152 129 _____P___PP___ -1 -19.1323 56.0565 99 -19.2500 56.6075 TC 25 -19.2500 56.6185 1 4 106
1941013S14054 1941 6 SI MM NOT_NAMED 1941-01-20 00:00:00 TS -19.2634 56.6151 main 129 115 _____P___OO___ -1 -19.1901 56.2452 99 -19.3000 56.8000 TC 25 -19.3000 56.8000 1 4 107
1941013S14054 1941 6 SI MM NOT_NAMED 1941-01-20 03:00:00 TS -19.3152 56.7828 main 115 100 _____P___PP___ -1 -19.2458 56.4264 99 -19.3500 56.9575 TC 25 -19.3499 56.9644 1 3 109
1941013S14054 1941 6 SI MM NOT_NAMED 1941-01-20 06:00:00 TS -19.3666 56.9384 reunion main 100 88 _____O___OP___ -1 -19.3000 56.6000 99 9.90000 -19.4000 57.1000 TC 25 -19.3999 57.1151 1 3 110
1941013S14054 1941 6 SI MM NOT_NAMED 1941-01-20 09:00:00 TS -19.4187 57.0923 main 88 74 _____P___PP___ -1 -19.3563 56.7687 99 -19.4500 57.2500 TC 25 -19.4499 57.2582 1 3 110
1941013S14054 1941 6 SI MM NOT_NAMED 1941-01-20 12:00:00 TS -19.4703 57.2430 main 74 67 _____P___OO___ -1 -19.4108 56.9290 99 -19.5000 57.4000 TC 25 -19.5000 57.4000 1 3 110
1941013S14054 1941 6 SI MM NOT_NAMED 1941-01-20 15:00:00 TS -19.5212 57.3955 main 67 55 _____P___PP___ -1 -19.4635 57.0823 99 -19.5500 57.5500 TC 25 -19.5500 57.5541 1 3 109
1941013S14054 1941 6 SI MM NOT_NAMED 1941-01-20 18:00:00 TS -19.5715 57.5459 main 55 55 _____P___OP___ -1 -19.5145 57.2303 99 -19.6000 57.7000 TC 25 -19.6000 57.7075 1 3 110
1941013S14054 1941 6 SI MM NOT_NAMED 1941-01-20 21:00:00 TS -19.6212 57.6939 main 55 45 _____P___PP___ -1 -19.5636 57.3744 99 -19.6500 57.8500 TC 25 -19.6500 57.8572 1 3 110
1941013S14054 1941 6 SI MM NOT_NAMED 1941-01-21 00:00:00 TS -19.6703 57.8388 main 45 45 _____P___OO___ -1 -19.6109 57.5164 99 -19.7000 58.0000 TC 25 -19.7000 58.0000 1 3 110
1941013S14054 1941 6 SI MM NOT_NAMED 1941-01-21 03:00:00 TS -19.7188 57.9811 main 54 53 _____P___PP___ -1 -19.6564 57.6577 99 -19.7500 58.1575 TC 25 -19.7499 58.1282 1 3 110
1941013S14054 1941 6 SI MM NOT_NAMED 1941-01-21 06:00:00 TS -19.7666 58.1167 reunion main 53 53 _____O___OP___ -1 -19.7000 57.8000 99 9.90000 -19.8000 58.3000 TC 25 -19.7999 58.2501 1 3 111
1941013S14054 1941 6 SI MM NOT_NAMED 1941-01-21 09:00:00 TS -19.8140 58.2394 main 62 62 _____P___PP___ -1 -19.7420 57.9463 99 -19.8500 58.4000 TC 25 -19.8499 58.3719 1 3 112
1941013S14054 1941 6 SI MM NOT_NAMED 1941-01-21 12:00:00 TS -19.8606 58.3640 main 76 76 _____P___OO___ -1 -19.7819 58.0921 99 -19.9000 58.5000 TC 25 -19.9000 58.5000 1 3 110
1941013S14054 1941 6 SI MM NOT_NAMED 1941-01-21 15:00:00 TS -19.9067 58.5065 main 85 85 _____P___PP___ -1 -19.8202 58.2381 99 -19.9500 58.6425 TC 25 -19.9500 58.6388 1 3 109
1941013S14054 1941 6 SI MM NOT_NAMED 1941-01-21 18:00:00 TS -19.9524 58.6568 main 99 99 _____P___OP___ -1 -19.8571 58.3852 99 -20.0000 58.8000 TC 25 -19.9999 58.7850 1 3 108
1941013S14054 1941 6 SI MM NOT_NAMED 1941-01-21 21:00:00 TS -19.9977 58.8077 main 109 109 _____P___PP___ -1 -19.8932 58.5342 99 -20.0500 58.9500 TC 25 -20.0500 58.9388 1 3 107
1941013S14054 1941 6 SI MM NOT_NAMED 1941-01-22 00:00:00 TS -20.0429 58.9619 main 129 127 _____P___OO___ -1 -19.9288 58.6858 99 -20.1000 59.1000 TC 25 -20.1000 59.1000 1 3 108
1941013S14054 1941 6 SI MM NOT_NAMED 1941-01-22 03:00:00 TS -20.0894 59.1157 main 137 137 _____P___PP___ -1 -19.9642 58.8408 99 -20.1500 59.2425 TC 25 -20.1540 59.2637 1 3 107
1941013S14054 1941 6 SI MM NOT_NAMED 1941-01-22 06:00:00 TS -20.1358 59.2783 reunion main 158 156 _____O___OP___ -1 -20.0000 59.0000 99 9.90000 -20.2000 59.4000 TC 25 -20.2074 59.4350 1 3 106
1941013S14054 1941 6 SI MM NOT_NAMED 1941-01-22 09:00:00 TS -20.1840 59.4561 main 177 177 _____P___PP___ -1 -20.0374 59.1619 99 -20.2575 59.5925 TC 25 -20.2571 59.6137 1 4 105
1941013S14054 1941 6 SI MM NOT_NAMED 1941-01-22 12:00:00 TS -20.2249 59.6425 main 188 188 _____P___OO___ -1 -20.0748 59.3276 99 -20.3000 59.8000 TC 25 -20.3000 59.8000 1 4 100
1941013S14054 1941 6 SI MM NOT_NAMED 1941-01-22 15:00:00 TS -20.2481 59.8300 main 208 208 _____P___PP___ -1 -20.1122 59.4970 99 -20.3000 60.0001 TC 25 -20.3322 59.9929 1 4 97
1941013S14054 1941 6 SI MM NOT_NAMED 1941-01-22 18:00:00 TS -20.2691 60.0209 main 229 229 _____P___OP___ -1 -20.1497 59.6702 99 -20.3000 60.2000 TC 25 -20.3575 60.1926 1 4 99
1941013S14054 1941 6 SI MM NOT_NAMED 1941-01-22 21:00:00 TS -20.3054 60.2143 main 250 250 _____P___PP___ -1 -20.1872 59.8470 99 -20.3500 60.4000 TC 25 -20.3790 60.3960 1 4 101
1941013S14054 1941 6 SI MM NOT_NAMED 1941-01-23 00:00:00 TS -20.3416 60.4092 main 271 271 _____P___OO___ -1 -20.2247 60.0276 99 -20.4000 60.6000 TC 25 -20.4000 60.6000 1 4 99
1941013S14054 1941 6 SI MM NOT_NAMED 1941-01-23 03:00:00 TS -20.3624 60.6054 main 292 292 _____P___PP___ -1 -20.2623 60.2120 99 -20.4000 60.8001 TC 25 -20.4250 60.8041 1 4 96
1941013S14054 1941 6 SI MM NOT_NAMED 1941-01-23 06:00:00 TS -20.3833 60.8025 reunion main 312 312 _____O___OP___ -1 -20.3000 60.4000 99 9.90000 -20.4000 61.0000 TC 25 -20.4500 61.0075 1 4 99
1941013S14054 1941 6 SI MM NOT_NAMED 1941-01-23 09:00:00 TS -20.4208 60.9974 main 333 333 _____P___PP___ -1 -20.3373 60.5850 99 -20.4500 61.2000 TC 25 -20.4750 61.2072 1 4 102
1941013S14054 1941 6 SI MM NOT_NAMED 1941-01-23 12:00:00 TS -20.4582 61.1912 main 355 355 _____P___OO___ -1 -20.3747 60.7736 99 -20.5000 61.4000 TC 25 -20.5000 61.4000 1 4 99
1941013S14054 1941 6 SI MM NOT_NAMED 1941-01-23 15:00:00 TS -20.4790 61.3812 main 375 375 _____P___PP___ -1 -20.4121 60.9660 99 -20.5000 61.6076 TC 25 -20.5248 61.5700 1 4 97
1941013S14054 1941 6 SI MM NOT_NAMED 1941-01-23 18:00:00 TS -20.4997 61.5659 main 396 396 _____P___OP___ -1 -20.4495 61.1627 99 -20.5000 61.8000 TC 25 -20.5497 61.7351 1 3 99
1941013S14054 1941 6 SI MM NOT_NAMED 1941-01-23 21:00:00 TS -20.5347 61.7380 main 407 407 _____P___PP___ -1 -20.4870 61.3641 99 -20.5424 61.9425 TC 25 -20.5748 61.9075 1 3 103
1941013S14054 1941 6 SI MM NOT_NAMED 1941-01-24 00:00:00 TS -20.5749 61.9235 main 428 428 _____P___OO___ -1 -20.5246 61.5705 99 -20.6000 62.1000 TC 25 -20.6000 62.1000 7 4 102
1941013S14054 1941 6 SI MM NOT_NAMED 1941-01-24 03:00:00 TS -20.6136 62.1486 main 449 449 _____P___PP___ -1 -20.5622 61.7823 99 -20.6575 62.3350 TC 25 -20.6210 62.3285 7 4 99
1941013S14054 1941 6 SI MM NOT_NAMED 1941-01-24 06:00:00 TS -20.6475 62.3925 reunion main 480 480 _____O___OP___ -1 -20.6000 62.0000 99 9.90000 -20.7000 62.6000 TC 25 -20.6425 62.5776 7 5 97
1941013S14054 1941 6 SI MM NOT_NAMED 1941-01-24 09:00:00 TS -20.6685 62.6404 main 501 501 _____P___PP___ -1 -20.6376 62.2331 99 -20.7000 62.8501 TC 25 -20.6678 62.8379 7 5 95
1941013S14054 1941 6 SI MM NOT_NAMED 1941-01-24 12:00:00 TS -20.6917 62.8912 main 532 532 _____P___OO___ -1 -20.6752 62.4737 99 -20.7000 63.1000 TC 25 -20.7000 63.1000 7 5 98
1941013S14054 1941 6 SI MM NOT_NAMED 1941-01-24 15:00:00 TS -20.7322 63.1417 main 553 553 _____P___PP___ -1 -20.7129 62.7187 99 -20.7425 63.3500 TC 25 -20.7413 63.3564 7 4 101
1941013S14054 1941 6 SI MM NOT_NAMED 1941-01-24 18:00:00 TS -20.7772 63.3482 main 575 575 _____P___OP___ -1 -20.7504 62.9650 99 -20.8000 63.6000 TC 25 -20.7902 63.6073 7 4 103
1941013S14054 1941 6 SI MM NOT_NAMED 1941-01-24 21:00:00 TS -20.8181 63.5308 main 595 595 _____P___PP___ -1 -20.7879 63.2094 99 -20.8526 63.8500 TC 25 -20.8440 63.8545 7 3 104
1941013S14054 1941 6 SI MM NOT_NAMED 1941-01-25 00:00:00 TS -20.8502 63.6658 main 617 617 _____P___OO___ -1 -20.8253 63.4488 99 -20.9000 64.1000 TC 25 -20.9000 64.1000 7 1 108
1941013S14054 1941 6 SI MM NOT_NAMED 1941-01-25 03:00:00 NR -20.8626 63.6800 main 617 617 _____P________ -1 -20.8626 63.6800 99 TC 7 2 103
1941013S14054 1941 6 SI MM NOT_NAMED 1941-01-25 06:00:00 NR -20.9000 63.9000 reunion main 638 638 _____O________ -1 -20.9000 63.9000 99 9.90000 7 4 101
1941013S14054 1941 6 SI MM NOT_NAMED 1941-01-25 09:00:00 NR -20.9374 64.1064 main 659 659 _____P________ -1 -20.9374 64.1064 99 7 4 101
1941013S14054 1941 6 SI MM NOT_NAMED 1941-01-25 12:00:00 NR -20.9749 64.3002 main 680 680 _____P________ -1 -20.9749 64.3002 99 4 102
1941013S14054 1941 6 SI MM NOT_NAMED 1941-01-25 15:00:00 NR -21.0124 64.4833 main 701 701 _____P________ -1 -21.0124 64.4833 99 3 103
1941013S14054 1941 6 SI MM NOT_NAMED 1941-01-25 18:00:00 NR -21.0499 64.6573 main 722 722 _____P________ -1 -21.0499 64.6573 99 3 103
1941013S14054 1941 6 SI MM NOT_NAMED 1941-01-25 21:00:00 NR -21.0875 64.8242 main 733 733 _____P________ -1 -21.0875 64.8242 99 3 104
1941013S14054 1941 6 SI MM NOT_NAMED 1941-01-26 00:00:00 NR -21.1251 64.9858 main 754 754 _____P________ -1 -21.1251 64.9858 99 3 104
1941013S14054 1941 6 SI MM NOT_NAMED 1941-01-26 03:00:00 NR -21.1626 65.1437 main 765 765 _____P________ -1 -21.1626 65.1437 99 3 104
1941013S14054 1941 6 SI MM NOT_NAMED 1941-01-26 06:00:00 NR -21.2000 65.3000 reunion main 786 _____O________ -1 -21.2000 65.3000 99 9.90000 3 104

IBTrACS Databaseについて

本データベースは、米国NOAAが公開する1842年以降の世界の熱帯低気圧のベストトラックデータアーカイブInternational Best Track Archive for Climate Stewardship (IBTrACS)を、ウェブで閲覧しやすい形式に変換したものです。

最終更新日:2021-10-19